Time;durP1;ratioP1;P1;durP2;ratioP2;P2;SDS_P1;SDS_P2;PMS_P1;PMS_P2;Temp;Humidity;BMP_temperature;BMP_pressure;BME280_temperature;BME280_humidity;BME280_pressure;Samples;Min_cycle;Max_cycle;Signal;HPM_P1;HPM_P2
2021/09/09 00:02:18;;;;;;;4.25;3.85;;;;;;;12.47;70.76;99432.75;5038464;28;20044;-74
2021/09/09 00:04:46;;;;;;;5.22;4.15;;;;;;;12.53;71.02;99451.00;5058700;28;20380;-75
2021/09/09 00:07:13;;;;;;;5.55;3.85;;;;;;;12.51;70.98;99444.91;5045110;28;20117;-74
2021/09/09 00:09:39;;;;;;;5.63;3.97;;;;;;;12.56;70.97;99442.66;5061081;28;20123;-74
2021/09/09 00:12:06;;;;;;;5.78;3.85;;;;;;;12.52;70.98;99441.22;5079287;28;20093;-74
2021/09/09 00:14:32;;;;;;;6.72;3.92;;;;;;;12.53;70.81;99426.84;5061315;28;20483;-74
2021/09/09 00:16:59;;;;;;;5.75;4.25;;;;;;;12.48;71.27;99429.91;5044874;28;20135;-75
2021/09/09 00:19:26;;;;;;;4.38;3.70;;;;;;;12.58;70.65;99443.38;5078020;28;20032;-74
2021/09/09 00:21:52;;;;;;;6.57;4.20;;;;;;;12.55;70.97;99435.59;5061193;28;20048;-74
2021/09/09 00:24:19;;;;;;;4.90;3.95;;;;;;;12.53;70.54;99429.53;5078960;28;20093;-74
2021/09/09 00:26:44;;;;;;;4.30;3.60;;;;;;;12.55;70.70;99440.97;5078163;28;20048;-75
2021/09/09 00:29:12;;;;;;;4.80;3.75;;;;;;;12.54;70.24;99425.88;5044995;28;20059;-73
2021/09/09 00:31:38;;;;;;;5.38;3.83;;;;;;;12.47;70.52;99422.00;5077947;28;20048;-74
2021/09/09 00:34:04;;;;;;;10.68;4.95;;;;;;;12.41;70.74;99420.69;5061526;28;20500;-73
2021/09/09 00:36:37;;;;;;;5.40;3.53;;;;;;;12.49;70.73;99434.31;5077764;28;20036;-74
2021/09/09 00:39:04;;;;;;;9.38;4.25;;;;;;;12.48;70.77;99427.22;5060833;28;20040;-74
2021/09/09 00:41:30;;;;;;;6.07;3.58;;;;;;;12.35;70.75;99418.56;5061048;28;20037;-74
2021/09/09 00:43:57;;;;;;;4.20;3.72;;;;;;;12.31;70.84;99423.34;5061100;28;20054;-74
2021/09/09 00:46:23;;;;;;;6.00;3.30;;;;;;;12.27;70.94;99413.03;5044714;28;20040;-75
2021/09/09 00:48:49;;;;;;;6.95;4.07;;;;;;;12.33;71.04;99432.09;5061095;28;20147;-73
2021/09/09 00:51:15;;;;;;;5.40;4.03;;;;;;;12.32;70.94;99426.88;5061108;28;20510;-74
2021/09/09 00:53:42;;;;;;;5.65;3.83;;;;;;;12.22;70.89;99405.34;5061369;28;20040;-74
2021/09/09 00:56:12;;;;;;;3.53;3.22;;;;;;;12.18;71.03;99417.31;5065975;28;20059;-75
2021/09/09 00:58:41;;;;;;;5.65;3.78;;;;;;;12.30;71.24;99427.00;5069580;28;20105;-74
2021/09/09 01:01:08;;;;;;;7.57;3.45;;;;;;;12.27;70.95;99429.94;5028252;28;20040;-75
2021/09/09 01:03:34;;;;;;;4.95;3.38;;;;;;;12.25;71.32;99428.38;5060887;28;20056;-74
2021/09/09 01:06:00;;;;;;;6.55;4.00;;;;;;;12.25;71.03;99429.22;5078615;28;20040;-74
2021/09/09 01:08:26;;;;;;;4.30;3.55;;;;;;;12.26;71.18;99425.56;5061099;28;20040;-74
2021/09/09 01:10:52;;;;;;;7.38;3.90;;;;;;;12.28;70.94;99423.59;5061117;28;20492;-73
2021/09/09 01:13:18;;;;;;;4.38;3.80;;;;;;;12.25;71.02;99423.84;5060651;28;20052;-74
2021/09/09 01:15:44;;;;;;;7.38;4.50;;;;;;;12.27;71.04;99429.09;5059029;28;20047;-73
2021/09/09 01:18:14;;;;;;;3.80;3.45;;;;;;;12.28;70.83;99425.44;5074352;28;20399;-74
2021/09/09 01:20:40;;;;;;;3.95;3.20;;;;;;;12.23;71.25;99431.19;5057530;28;20070;-75
2021/09/09 01:23:06;;;;;;;4.93;3.50;;;;;;;12.29;70.54;99419.09;5057409;28;20040;-74
2021/09/09 01:25:32;;;;;;;5.03;3.67;;;;;;;12.26;71.28;99420.22;5059574;28;20040;-73
2021/09/09 01:27:58;;;;;;;3.88;3.30;;;;;;;12.16;71.23;99408.56;5074233;28;20503;-74
2021/09/09 01:30:24;;;;;;;4.97;3.75;;;;;;;12.14;70.79;99391.75;5040859;28;20090;-74
2021/09/09 01:32:50;;;;;;;3.92;3.55;;;;;;;12.26;71.09;99412.19;5081558;28;20039;-75
2021/09/09 01:35:16;;;;;;;5.20;3.60;;;;;;;12.29;70.90;99408.34;5077901;28;20180;-74
2021/09/09 01:37:42;;;;;;;3.95;3.25;;;;;;;12.34;70.58;99411.50;5044407;28;20501;-74
2021/09/09 01:40:09;;;;;;;3.72;3.40;;;;;;;12.34;70.71;99407.00;5044339;28;20138;-74
2021/09/09 01:42:35;;;;;;;6.13;3.55;;;;;;;12.23;70.33;99399.03;5076912;28;20040;-74
2021/09/09 01:45:01;;;;;;;4.90;3.10;;;;;;;12.34;70.18;99412.34;5073704;28;20045;-74
2021/09/09 01:47:27;;;;;;;6.20;3.47;;;;;;;12.27;70.05;99395.09;5057188;28;20047;-74
2021/09/09 01:49:53;;;;;;;5.38;3.38;;;;;;;12.30;70.11;99400.22;5040662;28;20404;-75
2021/09/09 01:52:19;;;;;;;6.38;3.30;;;;;;;12.26;70.35;99406.81;5024352;28;20037;-74
2021/09/09 01:54:44;;;;;;;3.58;3.00;;;;;;;12.25;70.23;99405.09;5073859;28;20139;-73
2021/09/09 01:57:10;;;;;;;3.72;3.00;;;;;;;12.31;69.85;99395.69;5040743;28;20131;-74
2021/09/09 01:59:37;;;;;;;6.35;3.08;;;;;;;12.26;69.87;99396.09;5073414;28;20057;-77
2021/09/09 02:02:03;;;;;;;4.70;3.30;;;;;;;12.32;70.08;99405.41;5073631;28;20408;-75
2021/09/09 02:04:29;;;;;;;5.68;3.08;;;;;;;12.33;69.77;99399.06;5074591;28;20098;-75
2021/09/09 02:06:56;;;;;;;3.38;3.08;;;;;;;12.25;69.87;99398.88;5040305;28;20040;-75
2021/09/09 02:09:23;;;;;;;3.55;3.00;;;;;;;12.26;69.67;99401.44;5056848;28;20048;-76
2021/09/09 02:11:49;;;;;;;4.32;2.97;;;;;;;12.30;69.83;99405.56;5040075;28;20086;-78
2021/09/09 02:14:15;;;;;;;4.68;3.00;;;;;;;12.29;69.57;99393.13;5073387;28;20040;-77
2021/09/09 02:16:41;;;;;;;9.63;3.90;;;;;;;12.30;69.55;99396.69;5023405;28;20049;-78
2021/09/09 02:19:07;;;;;;;3.30;2.80;;;;;;;12.37;69.55;99406.75;5007245;28;20090;-76
2021/09/09 02:21:34;;;;;;;4.03;3.10;;;;;;;12.30;69.81;99400.22;5057050;28;20045;-76
2021/09/09 02:24:00;;;;;;;3.50;2.95;;;;;;;12.32;69.87;99398.22;5056236;28;20044;-75
2021/09/09 02:26:26;;;;;;;4.20;2.85;;;;;;;12.36;69.31;99390.78;5023143;28;20048;-74
2021/09/09 02:28:52;;;;;;;4.20;3.20;;;;;;;12.47;69.37;99397.88;5072456;28;20059;-77
2021/09/09 02:31:18;;;;;;;7.22;2.97;;;;;;;12.47;69.02;99395.19;5039323;28;20098;-75
2021/09/09 02:33:43;;;;;;;3.60;3.05;;;;;;;12.51;68.98;99402.00;5072372;28;20101;-79
2021/09/09 02:36:09;;;;;;;7.03;2.90;;;;;;;12.52;69.14;99401.00;5039213;28;20045;-74
2021/09/09 02:38:36;;;;;;;6.72;4.13;;;;;;;12.57;68.60;99391.59;5071832;28;20444;-75
2021/09/09 02:41:02;;;;;;;3.33;2.88;;;;;;;12.55;68.78;99382.81;5039121;28;20368;-74
2021/09/09 02:43:29;;;;;;;6.38;3.58;;;;;;;12.63;68.72;99387.50;5072646;28;20040;-75
2021/09/09 02:45:55;;;;;;;6.88;3.95;;;;;;;12.64;68.13;99375.81;5055305;28;20120;-75
2021/09/09 02:48:20;;;;;;;6.13;4.07;;;;;;;12.75;68.08;99391.81;5055329;28;20186;-74
2021/09/09 02:50:46;;;;;;;5.00;3.30;;;;;;;12.76;67.85;99384.63;5038783;28;20420;-76
2021/09/09 02:53:12;;;;;;;10.70;4.15;;;;;;;12.67;68.14;99386.25;5043357;28;20048;-75
2021/09/09 02:55:38;;;;;;;14.63;3.58;;;;;;;12.59;68.30;99388.75;5059567;28;20173;-75
2021/09/09 02:58:04;;;;;;;4.40;3.30;;;;;;;12.52;68.61;99390.28;5084733;28;20282;-74
2021/09/09 03:00:31;;;;;;;4.35;3.40;;;;;;;12.36;68.49;99370.16;5055728;28;20127;-74
2021/09/09 03:02:57;;;;;;;6.13;3.40;;;;;;;12.42;68.51;99386.72;5055587;28;20040;-74
2021/09/09 03:05:23;;;;;;;3.70;3.00;;;;;;;12.35;68.68;99391.75;5039160;28;20044;-75
2021/09/09 03:07:49;;;;;;;6.70;3.20;;;;;;;12.28;68.87;99383.38;5038695;28;20060;-74
2021/09/09 03:10:15;;;;;;;6.80;3.42;;;;;;;12.19;69.05;99380.69;5053229;28;20090;-76
2021/09/09 03:12:41;;;;;;;5.10;3.50;;;;;;;12.09;69.03;99376.09;5053521;28;20073;-74
2021/09/09 03:15:07;;;;;;;5.32;3.45;;;;;;;12.04;68.96;99362.25;5069565;28;20495;-74
2021/09/09 03:17:33;;;;;;;4.22;3.10;;;;;;;12.08;69.13;99373.56;5052841;28;20097;-75
2021/09/09 03:19:59;;;;;;;9.65;3.58;;;;;;;11.94;69.14;99363.16;5052984;28;20041;-75
2021/09/09 03:22:25;;;;;;;6.40;3.42;;;;;;;11.94;69.71;99366.69;5036568;28;20044;-75
2021/09/09 03:24:51;;;;;;;5.20;3.22;;;;;;;11.96;69.58;99366.53;5053191;28;20037;-75
2021/09/09 03:27:17;;;;;;;5.97;3.60;;;;;;;11.99;69.13;99356.41;5071001;28;20136;-74
2021/09/09 03:29:43;;;;;;;4.43;3.60;;;;;;;12.19;69.00;99360.09;5071251;28;20051;-75
2021/09/09 03:32:09;;;;;;;3.67;3.25;;;;;;;12.28;68.61;99364.63;5054816;28;20363;-75
2021/09/09 03:34:35;;;;;;;10.57;3.65;;;;;;;12.24;68.64;99355.16;5055153;28;20048;-76
2021/09/09 03:37:01;;;;;;;7.80;3.67;;;;;;;12.34;68.41;99357.91;5071172;28;20060;-74
2021/09/09 03:39:26;;;;;;;5.78;3.60;;;;;;;12.36;68.58;99361.28;5071181;28;20578;-74
2021/09/09 03:41:52;;;;;;;5.85;3.60;;;;;;;12.47;68.72;99352.31;5054751;28;20071;-74
2021/09/09 03:44:18;;;;;;;7.00;3.88;;;;;;;12.55;68.07;99350.63;5053644;28;20407;-74
2021/09/09 03:46:44;;;;;;;5.18;3.55;;;;;;;12.65;67.97;99345.31;5054264;28;20521;-74
2021/09/09 03:49:10;;;;;;;8.30;4.30;;;;;;;12.67;67.90;99321.03;5054106;28;20036;-74
2021/09/09 03:51:36;;;;;;;5.32;3.50;;;;;;;12.78;67.71;99335.19;5071179;28;20044;-75
2021/09/09 03:54:02;;;;;;;7.10;3.40;;;;;;;12.88;67.28;99322.66;5072117;28;20471;-75
2021/09/09 03:56:28;;;;;;;10.50;3.65;;;;;;;13.02;66.54;99325.94;5054823;28;20547;-75
2021/09/09 03:58:54;;;;;;;10.25;4.40;;;;;;;13.21;66.19;99322.44;5054027;28;20143;-76
2021/09/09 04:01:20;;;;;;;6.47;3.70;;;;;;;13.26;65.84;99328.25;5054623;28;20044;-75
2021/09/09 04:03:46;;;;;;;5.43;3.20;;;;;;;13.34;65.35;99306.91;5037729;28;20055;-75
2021/09/09 04:06:13;;;;;;;5.32;3.35;;;;;;;13.44;65.05;99309.63;5070937;28;20048;-75
2021/09/09 04:08:40;;;;;;;6.28;3.17;;;;;;;13.47;64.63;99314.72;5071021;28;20041;-75
2021/09/09 04:11:06;;;;;;;7.32;3.38;;;;;;;13.63;64.58;99314.97;5070723;28;20071;-75
2021/09/09 04:13:32;;;;;;;4.40;3.00;;;;;;;13.71;64.04;99319.63;5054242;28;20051;-75
2021/09/09 04:15:58;;;;;;;4.63;3.60;;;;;;;13.87;63.89;99319.03;5070985;28;20495;-75
2021/09/09 04:18:23;;;;;;;4.15;3.20;;;;;;;13.86;63.55;99320.88;5070740;28;20036;-74
2021/09/09 04:20:49;;;;;;;4.93;3.08;;;;;;;13.87;63.46;99324.41;5070571;28;20041;-75
2021/09/09 04:23:15;;;;;;;6.85;3.40;;;;;;;13.97;63.40;99319.88;5053641;28;20139;-76
2021/09/09 04:25:41;;;;;;;6.72;3.33;;;;;;;14.11;63.41;99316.72;5053874;28;20044;-75
2021/09/09 04:28:07;;;;;;;3.60;3.10;;;;;;;14.25;62.98;99316.22;5070861;28;20094;-75
2021/09/09 04:30:33;;;;;;;6.18;2.92;;;;;;;14.47;62.16;99308.78;5037649;28;20036;-74
2021/09/09 04:33:00;;;;;;;4.45;3.40;;;;;;;14.64;61.78;99312.59;5070565;28;20084;-74
2021/09/09 04:35:26;;;;;;;9.93;3.90;;;;;;;14.73;61.02;99315.22;5021571;28;20080;-75
2021/09/09 04:37:52;;;;;;;6.00;3.30;;;;;;;14.80;59.85;99305.53;5037804;28;20068;-74
2021/09/09 04:40:18;;;;;;;5.00;3.40;;;;;;;14.88;59.40;99314.72;5054389;28;20513;-75
2021/09/09 04:42:44;;;;;;;4.90;2.85;;;;;;;14.95;59.06;99313.09;5037595;28;20456;-75
2021/09/09 04:45:11;;;;;;;12.52;3.15;;;;;;;14.86;59.10;99309.47;5070804;28;20040;-75
2021/09/09 04:47:37;;;;;;;7.68;3.13;;;;;;;14.89;58.31;99309.16;5071069;28;20356;-75
2021/09/09 04:50:04;;;;;;;3.28;2.90;;;;;;;14.96;58.35;99314.78;5037701;28;20094;-75
2021/09/09 04:52:30;;;;;;;7.10;2.75;;;;;;;14.97;58.60;99305.72;5057170;28;20045;-74
2021/09/09 04:54:56;;;;;;;8.55;4.10;;;;;;;15.09;57.50;99303.69;5074384;28;20177;-75
2021/09/09 04:57:22;;;;;;;4.72;3.20;;;;;;;15.24;57.62;99313.75;5074968;28;20527;-75
2021/09/09 04:59:48;;;;;;;4.75;2.80;;;;;;;15.37;56.89;99307.13;5057614;28;20048;-75
2021/09/09 05:02:14;;;;;;;7.07;2.67;;;;;;;15.36;56.37;99314.38;5041087;28;20040;-75
2021/09/09 05:04:40;;;;;;;8.10;3.78;;;;;;;15.45;56.19;99304.50;5057827;28;20040;-76
2021/09/09 05:07:06;;;;;;;4.63;2.60;;;;;;;15.47;55.64;99307.91;5024639;28;20478;-75
2021/09/09 05:09:32;;;;;;;7.32;3.08;;;;;;;15.55;54.94;99311.50;5073988;28;20049;-75
2021/09/09 05:11:58;;;;;;;10.50;3.45;;;;;;;15.74;54.63;99305.13;5057853;28;20507;-73
2021/09/09 05:14:24;;;;;;;6.85;2.80;;;;;;;15.87;53.93;99293.06;5040941;28;20188;-75
2021/09/09 05:16:50;;;;;;;3.38;2.88;;;;;;;16.01;51.62;99300.59;5057396;28;20139;-76
2021/09/09 05:19:16;;;;;;;6.07;2.30;;;;;;;16.10;50.91;99305.06;5057785;28;20433;-75
2021/09/09 05:21:42;;;;;;;4.90;2.67;;;;;;;16.09;49.67;99306.03;5073738;28;20041;-75
2021/09/09 05:24:08;;;;;;;7.03;2.72;;;;;;;16.05;48.07;99288.47;5073602;28;20052;-74
2021/09/09 05:26:34;;;;;;;6.78;2.30;;;;;;;16.16;46.30;99312.47;5057111;28;20040;-75
2021/09/09 05:29:00;;;;;;;4.22;2.20;;;;;;;16.09;46.96;99310.59;5057109;28;20129;-74
2021/09/09 05:31:26;;;;;;;3.03;2.30;;;;;;;16.05;46.28;99301.97;5074251;28;20072;-74
2021/09/09 05:33:52;;;;;;;5.03;2.47;;;;;;;16.01;46.84;99285.25;5073898;28;20041;-76
2021/09/09 05:36:18;;;;;;;7.47;2.60;;;;;;;16.41;46.14;99281.09;5057196;28;20143;-75
2021/09/09 05:38:43;;;;;;;8.05;2.42;;;;;;;16.39;43.87;99279.56;5057111;28;20093;-75
2021/09/09 05:41:09;;;;;;;10.40;2.33;;;;;;;16.38;44.13;99294.91;5073288;28;20515;-75
2021/09/09 05:43:35;;;;;;;4.53;2.22;;;;;;;16.39;44.52;99276.88;5056835;28;20195;-74
2021/09/09 05:46:01;;;;;;;6.72;2.22;;;;;;;16.44;43.76;99279.94;5073401;28;20044;-74
2021/09/09 05:48:28;;;;;;;7.35;2.40;;;;;;;16.54;43.20;99277.09;5056882;28;20044;-75
2021/09/09 05:50:54;;;;;;;10.65;2.58;;;;;;;16.50;42.65;99279.28;5073416;28;20106;-75
2021/09/09 05:53:20;;;;;;;7.13;2.50;;;;;;;16.20;43.23;99257.22;5074363;28;20068;-75
2021/09/09 05:55:46;;;;;;;6.38;2.20;;;;;;;16.27;43.81;99262.81;5073092;28;20036;-75
2021/09/09 05:58:12;;;;;;;6.13;2.60;;;;;;;16.52;43.49;99279.97;5056374;28;20529;-74
2021/09/09 06:00:38;;;;;;;6.70;2.35;;;;;;;16.52;42.73;99256.53;5074378;28;20127;-76
2021/09/09 06:03:04;;;;;;;6.85;2.90;;;;;;;16.58;43.12;99249.63;5074248;28;20049;-74
2021/09/09 06:05:33;;;;;;;2.10;1.90;;;;;;;16.43;43.91;99295.25;5073124;28;20055;-74
2021/09/09 06:07:59;;;;;;;3.08;1.98;;;;;;;16.32;42.61;99273.97;5056810;28;20048;-75
2021/09/09 06:10:25;;;;;;;7.40;2.38;;;;;;;16.26;43.36;99272.78;5056849;28;20475;-75
2021/09/09 06:12:51;;;;;;;9.82;2.45;;;;;;;16.22;43.59;99274.09;5073086;28;20064;-73
2021/09/09 06:15:16;;;;;;;7.03;2.35;;;;;;;16.06;43.13;99287.50;5039795;28;20446;-75
2021/09/09 06:17:42;;;;;;;5.35;2.50;;;;;;;16.09;42.64;99232.38;5073123;28;20127;-75
2021/09/09 06:20:09;;;;;;;5.97;2.40;;;;;;;16.21;41.87;99256.25;5073007;28;20040;-74
2021/09/09 06:22:35;;;;;;;5.20;2.00;;;;;;;16.25;41.61;99254.91;5039811;28;20036;-74
2021/09/09 06:25:01;;;;;;;7.85;2.15;;;;;;;16.39;41.63;99255.28;5072718;28;20098;-75
2021/09/09 06:27:27;;;;;;;6.88;2.45;;;;;;;16.66;41.27;99257.78;5073946;28;20514;-74
2021/09/09 06:29:53;;;;;;;3.45;2.22;;;;;;;16.67;39.99;99291.84;5072791;28;20041;-75
2021/09/09 06:32:19;;;;;;;18.35;2.20;;;;;;;16.52;39.93;99239.50;5039449;28;20054;-75
2021/09/09 06:34:45;;;;;;;7.00;2.33;;;;;;;16.59;39.89;99229.75;5073825;28;20119;-74
2021/09/09 06:37:12;;;;;;;6.75;1.70;;;;;;;16.68;40.04;99246.81;5072318;28;20135;-75
2021/09/09 06:39:38;;;;;;;5.43;2.47;;;;;;;16.70;39.67;99242.09;5073622;28;20197;-75
2021/09/09 06:42:04;;;;;;;4.40;1.80;;;;;;;16.68;39.93;99244.94;5055622;28;20041;-76
2021/09/09 06:44:30;;;;;;;7.35;2.20;;;;;;;16.68;39.80;99253.03;5055421;28;20411;-75
2021/09/09 06:46:56;;;;;;;5.72;2.25;;;;;;;16.85;39.66;99236.91;5055743;28;20040;-75
2021/09/09 06:49:21;;;;;;;9.95;2.20;;;;;;;16.78;39.04;99230.50;5073494;28;20391;-74
2021/09/09 06:51:47;;;;;;;3.72;2.33;;;;;;;16.81;39.24;99222.06;5072078;28;20184;-75
2021/09/09 06:54:16;;;;;;;4.90;2.10;;;;;;;16.87;39.56;99221.41;5055397;28;20440;-75
2021/09/09 06:56:43;;;;;;;;;;;;;;;16.97;39.53;99232.91;5073571;28;20047;-75
2021/09/09 06:59:09;;;;;;;9.55;2.30;;;;;;;17.30;39.18;99200.50;5073222;28;19971;-75
2021/09/09 07:01:35;;;;;;;6.45;2.15;;;;;;;17.42;38.19;99205.41;5071727;28;20139;-74
2021/09/09 07:04:01;;;;;;;9.45;2.35;;;;;;;17.15;37.80;99221.94;5055275;28;20108;-75
2021/09/09 07:06:26;;;;;;;3.22;2.13;;;;;;;17.34;38.00;99201.84;5055053;28;20052;-74
2021/09/09 07:08:53;;;;;;;10.18;2.13;;;;;;;17.30;37.57;99185.16;5038629;28;20484;-75
2021/09/09 07:11:18;;;;;;;7.43;2.45;;;;;;;17.31;38.03;99192.25;5055247;28;20519;-74
2021/09/09 07:13:44;;;;;;;3.15;2.38;;;;;;;17.29;37.37;99198.81;5071223;28;20055;-75
2021/09/09 07:16:10;;;;;;;11.90;2.53;;;;;;;17.30;37.89;99200.50;5039404;28;20047;-75
2021/09/09 07:18:36;;;;;;;9.23;2.65;;;;;;;17.44;37.10;99224.97;5072916;28;20055;-74
2021/09/09 07:21:03;;;;;;;6.10;2.28;;;;;;;17.38;36.29;99187.84;5073239;28;20048;-74
2021/09/09 07:23:28;;;;;;;10.45;3.95;;;;;;;17.23;36.97;99190.38;5055299;28;20193;-74
2021/09/09 07:25:54;;;;;;;11.10;2.60;;;;;;;17.08;37.08;99188.53;5055610;28;20420;-74
2021/09/09 07:28:20;;;;;;;4.03;1.98;;;;;;;17.17;37.58;99193.75;5055045;28;20208;-75
2021/09/09 07:30:46;;;;;;;8.48;2.58;;;;;;;17.17;37.53;99211.81;5071559;28;20085;-75
2021/09/09 07:33:12;;;;;;;8.75;3.15;;;;;;;17.38;37.47;99168.09;5072807;28;20071;-75
2021/09/09 07:35:38;;;;;;;4.82;2.50;;;;;;;17.39;37.36;99205.75;5054603;28;20041;-75
2021/09/09 07:38:04;;;;;;;7.30;2.20;;;;;;;17.46;36.93;99170.78;5071446;28;20048;-74
2021/09/09 07:40:30;;;;;;;12.82;2.80;;;;;;;17.38;37.42;99165.41;5038366;28;20055;-77
2021/09/09 07:42:57;;;;;;;6.07;1.90;;;;;;;17.50;36.77;99174.81;5071489;28;20091;-75
2021/09/09 07:45:23;;;;;;;10.75;2.25;;;;;;;17.54;36.87;99181.56;5054680;28;20466;-74
2021/09/09 07:47:49;;;;;;;7.13;2.05;;;;;;;17.85;36.34;99134.91;5071252;28;20094;-74
2021/09/09 07:50:15;;;;;;;17.25;2.60;;;;;;;18.28;35.52;99154.31;5071043;28;20494;-74
2021/09/09 07:52:41;;;;;;;6.07;2.40;;;;;;;18.56;34.86;99133.84;5070997;28;20044;-75
2021/09/09 07:55:08;;;;;;;7.15;2.30;;;;;;;18.56;35.26;99155.50;5070944;28;20048;-74
2021/09/09 07:57:34;;;;;;;3.90;2.22;;;;;;;18.20;35.53;99122.72;5054247;28;20481;-75
2021/09/09 08:00:00;;;;;;;6.20;2.20;;;;;;;18.06;35.41;99127.03;5055108;28;20051;-75
2021/09/09 08:02:26;;;;;;;6.25;2.42;;;;;;;18.18;35.32;99147.25;5038131;28;20055;-75
2021/09/09 08:04:52;;;;;;;2.30;1.77;;;;;;;18.04;35.53;99118.25;5071578;28;20049;-75
2021/09/09 08:07:18;;;;;;;3.45;2.03;;;;;;;17.89;36.17;99120.84;5055125;28;20036;-74
2021/09/09 08:09:44;;;;;;;10.63;2.20;;;;;;;18.16;35.45;99126.81;5054740;28;20384;-75
2021/09/09 08:12:10;;;;;;;3.70;1.90;;;;;;;18.55;35.22;99121.34;5054374;28;20047;-74
2021/09/09 08:14:36;;;;;;;2.28;2.08;;;;;;;18.71;35.08;99111.47;5038228;28;20052;-74
2021/09/09 08:17:02;;;;;;;5.00;2.00;;;;;;;18.37;35.63;99080.19;5054636;28;20526;-74
2021/09/09 08:19:28;;;;;;;4.78;2.08;;;;;;;18.40;35.68;99087.97;5054453;28;20411;-75
2021/09/09 08:21:53;;;;;;;7.10;2.45;;;;;;;18.44;35.47;99114.47;5071718;28;20098;-74
2021/09/09 08:24:19;;;;;;;9.32;2.40;;;;;;;18.74;35.00;99093.00;5072321;28;20435;-74
2021/09/09 08:26:45;;;;;;;5.72;1.95;;;;;;;18.55;35.05;99099.69;5058239;28;20141;-75
2021/09/09 08:29:11;;;;;;;4.18;1.73;;;;;;;18.43;35.36;99112.81;5058552;28;20051;-75
2021/09/09 08:31:37;;;;;;;11.43;2.00;;;;;;;18.19;35.61;99127.28;5075000;28;20190;-75
2021/09/09 08:34:05;;;;;;;6.35;2.40;;;;;;;18.11;35.89;99092.19;5075191;28;20127;-75
2021/09/09 08:36:31;;;;;;;2.63;1.70;;;;;;;18.16;36.25;99083.53;5076394;28;20045;-75
2021/09/09 08:38:57;;;;;;;5.78;2.42;;;;;;;18.34;35.90;99091.38;5041705;28;20553;-74
2021/09/09 08:41:23;;;;;;;3.85;2.03;;;;;;;18.56;35.63;99090.56;5058219;28;20036;-74
2021/09/09 08:43:49;;;;;;;3.22;2.00;;;;;;;18.69;34.62;99088.09;5074673;28;20479;-74
2021/09/09 08:46:16;;;;;;;8.57;2.00;;;;;;;18.79;33.81;99101.41;5058074;28;20047;-75
2021/09/09 08:48:46;;;;;;;9.10;2.40;;;;;;;18.65;34.41;99094.91;5074637;28;20402;-73
2021/09/09 08:51:12;;;;;;;5.80;2.13;;;;;;;18.67;34.11;99087.41;5057969;28;20491;-75
2021/09/09 08:53:39;;;;;;;5.47;1.88;;;;;;;18.62;34.43;99073.59;5058033;28;20045;-75
2021/09/09 08:56:05;;;;;;;6.47;1.90;;;;;;;18.74;34.76;99070.50;5074731;28;20056;-74
2021/09/09 08:58:33;;;;;;;3.38;2.17;;;;;;;18.81;33.75;99074.16;5057913;28;20110;-74
2021/09/09 09:01:06;;;;;;;6.93;2.10;;;;;;;18.85;33.98;99056.53;5041352;28;20381;-75
2021/09/09 09:03:52;;;;;;;5.53;2.20;;;;;;;18.81;33.53;99076.88;5057766;28;20040;-74
2021/09/09 09:06:21;;;;;;;6.55;2.00;;;;;;;18.58;34.50;99064.16;5040831;28;20052;-74
2021/09/09 09:08:55;;;;;;;5.43;2.10;;;;;;;18.33;34.69;99074.31;5040682;28;20072;-73
2021/09/09 09:11:22;;;;;;;2.88;1.95;;;;;;;18.29;35.16;99053.19;5073938;28;20553;-74
2021/09/09 09:13:48;;;;;;;7.32;2.33;;;;;;;18.29;35.07;99061.31;5075112;28;20032;-75
2021/09/09 09:16:14;;;;;;;11.88;2.30;;;;;;;18.15;35.73;99043.97;5057223;28;20044;-74
2021/09/09 09:18:43;;;;;;;6.85;1.98;;;;;;;18.29;35.51;99039.66;5024639;28;20047;-75
2021/09/09 09:21:09;;;;;;;;;;;;;;;18.19;35.84;99035.31;5074343;28;20106;-73
2021/09/09 09:23:35;;;;;;;6.15;1.95;;;;;;;18.34;35.68;99027.28;5073578;28;20366;-73
2021/09/09 09:26:03;;;;;;;13.02;2.10;;;;;;;18.75;34.64;99029.69;5073630;28;20089;-75
2021/09/09 09:28:40;;;;;;;7.40;2.22;;;;;;;18.28;34.45;99033.41;5057287;28;20389;-74
2021/09/09 09:31:10;;;;;;;9.70;2.50;;;;;;;18.18;34.20;99039.06;5040523;28;20060;-74
2021/09/09 09:33:41;;;;;;;4.28;2.00;;;;;;;18.39;34.45;99018.59;5073300;28;20045;-75
2021/09/09 09:36:23;;;;;;;3.53;2.00;;;;;;;18.15;35.28;98996.13;5023382;28;20403;-75
2021/09/09 09:38:52;;;;;;;8.80;2.55;;;;;;;18.24;35.32;99042.91;5040273;28;20197;-74
2021/09/09 09:41:19;;;;;;;7.75;2.45;;;;;;;17.76;35.87;99025.09;5057318;28;20498;-75
2021/09/09 09:44:06;;;;;;;10.40;2.25;;;;;;;17.76;35.83;99011.59;5072868;28;20063;-74
2021/09/09 09:46:36;;;;;;;4.65;2.17;;;;;;;17.70;35.65;99008.53;5073349;28;20044;-74
2021/09/09 09:49:17;;;;;;;4.25;2.38;;;;;;;17.70;35.60;98997.72;5073556;28;20156;-75
2021/09/09 09:51:45;;;;;;;8.68;2.25;;;;;;;17.71;36.06;98994.00;5074549;28;20063;-74
2021/09/09 09:54:12;;;;;;;3.30;2.00;;;;;;;17.73;35.27;99002.78;5056703;28;20048;-75
2021/09/09 09:56:39;;;;;;;3.20;2.15;;;;;;;17.54;35.58;99005.91;5073150;28;20039;-74
2021/09/09 09:59:05;;;;;;;6.80;2.13;;;;;;;17.45;35.96;98977.22;5056069;28;20079;-74
2021/09/09 10:01:31;;;;;;;11.15;2.30;;;;;;;17.54;36.34;98996.97;5055874;28;20040;-75
2021/09/09 10:04:02;;;;;;;4.88;1.95;;;;;;;17.52;36.21;98975.50;5073104;28;20051;-74
2021/09/09 10:06:29;;;;;;;5.40;2.17;;;;;;;17.35;36.72;98982.00;5056209;28;20093;-75
2021/09/09 10:08:54;;;;;;;11.82;3.00;;;;;;;17.40;36.73;98979.63;5039407;28;20083;-74
2021/09/09 10:11:20;;;;;;;14.05;2.05;;;;;;;17.42;36.08;98993.81;5056487;28;20040;-75
2021/09/09 10:13:46;;;;;;;8.88;2.50;;;;;;;17.24;36.58;98946.25;5074012;28;20127;-74
2021/09/09 10:16:16;;;;;;;10.85;2.42;;;;;;;17.37;36.37;98958.34;5056287;28;20446;-73
2021/09/09 10:18:42;;;;;;;12.05;2.60;;;;;;;17.48;36.00;98966.06;5056843;28;20194;-76
2021/09/09 10:21:08;;;;;;;6.10;3.10;;;;;;;17.31;36.00;98968.00;5039455;28;20040;-75
2021/09/09 10:23:34;;;;;;;6.20;2.30;;;;;;;17.38;36.01;98973.56;5022899;28;20041;-74
2021/09/09 10:26:02;;;;;;;9.13;2.42;;;;;;;17.30;36.33;98962.75;5039449;28;20549;-75
2021/09/09 10:28:43;;;;;;;11.13;2.45;;;;;;;17.13;37.30;98965.53;5039666;28;20503;-75
2021/09/09 10:31:16;;;;;;;7.32;2.13;;;;;;;16.99;38.18;98944.66;5056088;28;20044;-75
2021/09/09 10:33:49;;;;;;;4.82;1.90;;;;;;;16.97;38.89;98947.53;5040203;28;20052;-76
2021/09/09 10:36:40;;;;;;;3.53;2.00;;;;;;;16.72;40.52;98956.66;5056024;28;20052;-75
2021/09/09 10:39:08;;;;;;;2.58;1.80;;;;;;;16.52;40.76;98931.91;5039113;28;20485;-76
2021/09/09 10:41:34;;;;;;;3.85;2.40;;;;;;;16.34;40.78;98939.34;5072818;28;20039;-75
2021/09/09 10:44:02;;;;;;;9.23;2.45;;;;;;;16.29;41.68;98939.03;5055769;28;20059;-75
2021/09/09 10:46:30;;;;;;;3.58;2.30;;;;;;;16.20;42.27;98941.69;5072290;28;20131;-74
2021/09/09 10:49:22;;;;;;;8.15;2.80;;;;;;;16.16;42.71;98928.72;5054561;28;20056;-75
2021/09/09 10:52:12;;;;;;;5.75;2.45;;;;;;;16.21;43.00;98946.09;5054388;28;20055;-75
2021/09/09 10:55:02;;;;;;;6.13;2.70;;;;;;;16.10;43.15;98937.47;5039170;28;20049;-74
2021/09/09 10:57:28;;;;;;;5.22;2.42;;;;;;;15.89;44.20;98941.50;5038625;28;20507;-74
2021/09/09 10:59:54;;;;;;;7.40;2.33;;;;;;;15.51;45.02;98924.06;5072098;28;20048;-75
2021/09/09 11:02:20;;;;;;;2.20;1.98;;;;;;;15.53;45.69;98936.38;5055084;28;20522;-74
2021/09/09 11:04:49;;;;;;;2.80;2.35;;;;;;;15.55;46.14;98928.13;5038828;28;20041;-74
2021/09/09 11:07:26;;;;;;;8.63;2.53;;;;;;;15.39;46.90;98928.91;5055419;28;20518;-74
2021/09/09 11:10:07;;;;;;;2.92;2.15;;;;;;;15.08;48.33;98909.75;5055461;28;20467;-74
2021/09/09 11:12:38;;;;;;;5.65;2.47;;;;;;;14.99;48.85;98899.97;5055384;28;20068;-74
2021/09/09 11:15:09;;;;;;;3.10;2.55;;;;;;;14.98;48.43;98901.00;5039033;28;20139;-74
2021/09/09 11:17:35;;;;;;;8.07;2.47;;;;;;;14.93;48.65;98912.25;5071753;28;20559;-73
2021/09/09 11:20:06;;;;;;;6.30;2.65;;;;;;;14.96;47.30;98943.38;5073063;28;20051;-75
2021/09/09 11:22:33;;;;;;;5.45;2.63;;;;;;;14.62;49.87;98898.44;5055052;28;20071;-75
2021/09/09 11:24:59;;;;;;;5.38;2.65;;;;;;;14.41;51.15;98895.28;5071302;28;20041;-73
2021/09/09 11:27:30;;;;;;;8.65;2.88;;;;;;;14.38;50.37;98915.25;5055062;28;20044;-75
2021/09/09 11:29:57;;;;;;;5.13;2.70;;;;;;;14.49;49.35;98908.78;5071255;28;20494;-74
2021/09/09 11:32:23;;;;;;;6.32;2.97;;;;;;;14.42;50.99;98913.09;5054867;28;20544;-76
2021/09/09 11:34:49;;;;;;;3.22;2.80;;;;;;;14.17;52.03;98907.53;5054784;28;20044;-76